createdAt,value
2022-11-15T00:00:04.785Z,68.04
2022-11-15T00:01:25.352Z,68.03
2022-11-15T00:02:46.247Z,68.00
2022-11-15T00:04:07.307Z,68.14
2022-11-15T00:05:28.095Z,68.11
2022-11-15T00:06:49.296Z,68.08
2022-11-15T00:08:10.745Z,68.12
2022-11-15T00:09:31.734Z,68.00
2022-11-15T00:10:57.233Z,68.08
2022-11-15T00:12:18.098Z,67.94
2022-11-15T00:13:38.771Z,67.99
2022-11-15T00:14:59.463Z,68.06
2022-11-15T00:16:20.149Z,68.03
2022-11-15T00:17:40.723Z,68.07
2022-11-15T00:19:01.405Z,68.05
2022-11-15T00:20:22.047Z,68.07
2022-11-15T00:21:42.721Z,68.19
2022-11-15T00:23:07.459Z,68.15
2022-11-15T00:24:28.146Z,67.99
2022-11-15T00:25:57.545Z,68.13
2022-11-15T00:27:18.588Z,68.06
2022-11-15T00:28:39.775Z,67.99
2022-11-15T00:30:00.536Z,67.97
2022-11-15T00:31:21.320Z,68.01
2022-11-15T00:32:49.433Z,68.02
2022-11-15T00:34:11.781Z,68.00
2022-11-15T00:35:34.579Z,67.94
2022-11-15T00:36:55.359Z,68.02
2022-11-15T00:38:16.458Z,68.11
2022-11-15T00:39:36.976Z,68.08
2022-11-15T00:40:57.623Z,68.07
2022-11-15T00:42:18.389Z,68.22
2022-11-15T00:43:41.200Z,68.26
2022-11-15T00:45:02.671Z,68.42
2022-11-15T00:46:23.678Z,68.40
2022-11-15T00:47:47.854Z,68.36
2022-11-15T00:49:08.793Z,68.34
2022-11-15T00:50:29.630Z,68.49
2022-11-15T00:51:50.569Z,68.55
2022-11-15T00:53:11.475Z,68.54
2022-11-15T00:54:32.220Z,68.59
2022-11-15T00:55:53.076Z,68.67
2022-11-15T00:57:14.251Z,68.76
2022-11-15T00:58:34.997Z,68.79
2022-11-15T00:59:55.709Z,68.91
2022-11-15T01:01:16.664Z,68.87
2022-11-15T01:02:37.658Z,68.84
2022-11-15T01:04:01.306Z,68.91
2022-11-15T01:05:23.013Z,69.00
2022-11-15T01:06:43.720Z,69.10
2022-11-15T01:08:05.136Z,68.97
2022-11-15T01:09:25.956Z,69.07
2022-11-15T01:10:46.703Z,69.17
2022-11-15T01:12:07.273Z,69.17
2022-11-15T01:13:32.128Z,69.23
2022-11-15T01:14:53.370Z,69.15
2022-11-15T01:16:19.423Z,69.23
2022-11-15T01:17:40.178Z,69.17
2022-11-15T01:19:02.342Z,69.26
2022-11-15T01:20:23.206Z,69.05
2022-11-15T01:21:44.236Z,69.06
2022-11-15T01:23:05.153Z,69.18
2022-11-15T01:24:26.008Z,69.13
2022-11-15T01:25:47.020Z,68.98
2022-11-15T01:27:07.638Z,69.18
2022-11-15T01:28:38.922Z,69.25
2022-11-15T01:29:59.801Z,69.22
2022-11-15T01:31:22.018Z,69.29
2022-11-15T01:32:42.850Z,69.22
2022-11-15T01:34:03.516Z,69.28
2022-11-15T01:35:24.861Z,69.12
2022-11-15T01:36:45.477Z,69.19
2022-11-15T01:38:06.187Z,69.24
2022-11-15T01:39:27.692Z,69.13
2022-11-15T01:40:49.260Z,69.26
2022-11-15T01:42:14.770Z,69.24
2022-11-15T01:43:37.778Z,69.20
2022-11-15T01:44:58.767Z,69.12
2022-11-15T01:46:32.932Z,69.08
2022-11-15T01:47:56.172Z,69.13
2022-11-15T01:49:20.469Z,69.06
2022-11-15T01:50:41.289Z,69.01
2022-11-15T01:52:06.049Z,69.11
2022-11-15T01:53:29.026Z,69.10
2022-11-15T01:54:55.056Z,69.16
2022-11-15T01:56:25.980Z,68.98
2022-11-15T01:57:49.383Z,68.98
2022-11-15T01:59:11.843Z,68.97
2022-11-15T02:00:35.193Z,68.95
2022-11-15T02:01:56.682Z,68.83
2022-11-15T02:03:17.759Z,68.82
2022-11-15T02:04:47.105Z,68.70
2022-11-15T02:06:08.631Z,68.72
2022-11-15T02:07:31.678Z,68.66
2022-11-15T02:08:52.914Z,68.67
2022-11-15T02:10:22.751Z,68.63
2022-11-15T02:11:45.089Z,68.59
2022-11-15T02:13:06.070Z,68.66
2022-11-15T02:14:28.644Z,68.68
2022-11-15T02:16:28.013Z,68.66
2022-11-15T02:18:09.243Z,68.60
2022-11-15T02:20:03.058Z,68.56
2022-11-15T02:21:40.631Z,68.48
2022-11-15T02:23:22.463Z,68.55
2022-11-15T02:24:46.182Z,68.36
2022-11-15T02:26:13.015Z,68.40
2022-11-15T02:28:12.755Z,68.42
2022-11-15T02:29:54.823Z,68.38
2022-11-15T02:31:27.212Z,68.23
2022-11-15T02:33:12.541Z,68.28
2022-11-15T02:34:39.037Z,68.28
2022-11-15T02:36:13.293Z,68.46
2022-11-15T02:37:56.837Z,68.24
2022-11-15T02:39:39.681Z,68.30
2022-11-15T02:41:05.885Z,68.27
2022-11-15T02:42:49.683Z,68.29
2022-11-15T02:44:25.637Z,68.30
2022-11-15T02:45:52.224Z,68.31
2022-11-15T02:47:17.810Z,68.33
2022-11-15T02:48:40.033Z,68.29
2022-11-15T02:50:10.039Z,68.39
2022-11-15T02:51:30.608Z,68.34
2022-11-15T02:52:52.123Z,68.35
2022-11-15T02:54:24.656Z,68.50
2022-11-15T02:56:05.821Z,68.32
2022-11-15T02:57:50.774Z,68.43
2022-11-15T02:59:29.196Z,68.58
2022-11-15T03:00:58.870Z,68.56
2022-11-15T03:02:44.442Z,68.57
2022-11-15T03:04:35.851Z,68.48
2022-11-15T03:06:27.436Z,68.56
2022-11-15T03:08:03.603Z,68.51
2022-11-15T03:09:46.174Z,68.64
2022-11-15T03:11:10.146Z,68.55
2022-11-15T03:12:44.295Z,68.60
2022-11-15T03:14:23.727Z,68.60
2022-11-15T03:15:55.619Z,68.71
2022-11-15T03:17:23.770Z,68.80
2022-11-15T03:18:54.871Z,68.77
2022-11-15T03:20:17.961Z,68.77
2022-11-15T03:21:41.961Z,68.77
2022-11-15T03:23:06.581Z,68.80
2022-11-15T03:24:34.068Z,68.85
2022-11-15T03:25:57.304Z,68.88
2022-11-15T03:27:23.655Z,69.05
2022-11-15T03:29:00.160Z,69.13
2022-11-15T03:30:21.533Z,69.07
2022-11-15T03:31:50.502Z,69.28
2022-11-15T03:33:12.776Z,69.38
2022-11-15T03:34:40.432Z,69.40
2022-11-15T03:36:04.395Z,69.31
2022-11-15T03:37:34.191Z,69.39
2022-11-15T03:38:59.480Z,69.35
2022-11-15T03:40:27.544Z,69.48
2022-11-15T03:42:14.793Z,69.46
2022-11-15T03:43:40.307Z,69.44
2022-11-15T03:45:03.731Z,69.40
2022-11-15T03:46:27.038Z,69.30
2022-11-15T03:47:59.152Z,69.44
2022-11-15T03:49:31.066Z,69.50
2022-11-15T03:50:52.546Z,69.52
2022-11-15T03:52:13.655Z,69.40
2022-11-15T03:53:34.353Z,69.55
2022-11-15T03:54:57.590Z,69.58
2022-11-15T03:56:21.288Z,69.56
2022-11-15T03:57:42.429Z,69.63
2022-11-15T03:59:03.272Z,69.56
2022-11-15T04:00:24.502Z,69.55
2022-11-15T04:01:44.990Z,69.63
2022-11-15T04:03:05.965Z,69.63
2022-11-15T04:04:26.648Z,69.61
2022-11-15T04:05:47.565Z,69.63
2022-11-15T04:07:08.273Z,69.71
2022-11-15T04:08:29.654Z,69.80
2022-11-15T04:10:06.106Z,69.79
2022-11-15T04:11:26.829Z,69.79
2022-11-15T04:12:48.748Z,69.83
2022-11-15T04:14:09.577Z,69.86
2022-11-15T04:15:31.062Z,69.90
2022-11-15T04:16:51.794Z,69.84
2022-11-15T04:18:14.771Z,69.82
2022-11-15T04:19:55.684Z,69.83
2022-11-15T04:21:34.647Z,69.91
2022-11-15T04:23:15.540Z,69.83
2022-11-15T04:24:36.360Z,69.84
2022-11-15T04:26:00.579Z,69.79
2022-11-15T04:27:21.434Z,69.82
2022-11-15T04:29:00.853Z,69.90
2022-11-15T04:30:21.738Z,69.86
2022-11-15T04:31:42.266Z,69.84
2022-11-15T04:33:02.858Z,69.85
2022-11-15T04:34:23.512Z,70.01
2022-11-15T04:35:44.812Z,70.08
2022-11-15T04:37:14.298Z,69.95
2022-11-15T04:38:35.579Z,70.06
2022-11-15T04:39:56.672Z,70.17
2022-11-15T04:41:17.212Z,70.13
2022-11-15T04:42:37.928Z,69.99
2022-11-15T04:43:58.863Z,70.13
2022-11-15T04:45:19.915Z,70.15
2022-11-15T04:46:40.886Z,70.11
2022-11-15T04:48:01.686Z,70.13
2022-11-15T04:49:22.725Z,70.19
2022-11-15T04:50:43.480Z,70.01
2022-11-15T04:52:04.537Z,70.08
2022-11-15T04:53:25.621Z,70.09
2022-11-15T04:54:46.333Z,70.07
2022-11-15T04:56:07.483Z,70.09
2022-11-15T04:57:28.074Z,70.03
2022-11-15T04:58:51.889Z,69.96
2022-11-15T05:00:16.676Z,70.22
2022-11-15T05:01:42.138Z,70.19
2022-11-15T05:03:24.034Z,70.19
2022-11-15T05:04:45.051Z,70.02
2022-11-15T05:06:07.055Z,70.12
2022-11-15T05:07:27.894Z,70.20
2022-11-15T05:08:49.237Z,70.27
2022-11-15T05:10:10.400Z,70.28
2022-11-15T05:11:30.962Z,70.21
2022-11-15T05:12:51.985Z,70.17
2022-11-15T05:14:13.853Z,70.18
2022-11-15T05:15:34.998Z,70.11
2022-11-15T05:16:55.940Z,70.10
2022-11-15T05:18:22.182Z,70.14
2022-11-15T05:19:45.687Z,70.23
2022-11-15T05:21:11.054Z,70.18
2022-11-15T05:22:31.670Z,70.21
2022-11-15T05:23:53.007Z,70.18
2022-11-15T05:25:13.707Z,70.10
2022-11-15T05:26:34.331Z,70.11
2022-11-15T05:27:55.572Z,70.13
2022-11-15T05:29:16.100Z,70.16
2022-11-15T05:30:37.005Z,70.10
2022-11-15T05:31:57.888Z,70.16
2022-11-15T05:33:19.802Z,70.11
2022-11-15T05:34:40.512Z,70.16
2022-11-15T05:36:07.814Z,70.17
2022-11-15T05:37:29.892Z,70.24
2022-11-15T05:38:54.278Z,70.12
2022-11-15T05:40:14.838Z,70.14
2022-11-15T05:41:40.510Z,70.17
2022-11-15T05:43:03.169Z,70.13
2022-11-15T05:44:24.666Z,70.18
2022-11-15T05:45:48.212Z,70.09
2022-11-15T05:47:12.464Z,70.11
2022-11-15T05:48:37.099Z,70.08
2022-11-15T05:49:58.858Z,70.12
2022-11-15T05:51:23.791Z,70.13
2022-11-15T05:52:47.042Z,70.13
2022-11-15T05:54:07.936Z,70.09
2022-11-15T05:55:29.329Z,70.14
2022-11-15T05:56:50.369Z,70.14
2022-11-15T05:58:11.209Z,70.14
2022-11-15T05:59:33.538Z,70.03
2022-11-15T06:00:55.415Z,70.18
2022-11-15T06:02:16.197Z,70.02
2022-11-15T06:03:37.080Z,70.07
2022-11-15T06:04:57.680Z,70.22
2022-11-15T06:06:18.307Z,70.16
2022-11-15T06:07:39.572Z,70.16
2022-11-15T06:09:00.250Z,70.15
2022-11-15T06:10:21.090Z,70.21
2022-11-15T06:11:41.546Z,70.24
2022-11-15T06:13:04.726Z,70.20
2022-11-15T06:14:25.724Z,70.14
2022-11-15T06:15:46.471Z,70.24
2022-11-15T06:17:11.293Z,70.27
2022-11-15T06:18:36.056Z,70.29
2022-11-15T06:19:56.947Z,70.29
2022-11-15T06:21:17.390Z,70.32
2022-11-15T06:22:38.475Z,70.31
2022-11-15T06:23:58.927Z,70.34
2022-11-15T06:25:19.855Z,70.28
2022-11-15T06:26:40.492Z,70.35
2022-11-15T06:28:03.670Z,70.27
2022-11-15T06:29:24.551Z,70.31
2022-11-15T06:30:47.972Z,70.31
2022-11-15T06:32:12.849Z,70.28
2022-11-15T06:33:34.151Z,70.17
2022-11-15T06:34:55.444Z,70.24
2022-11-15T06:36:18.225Z,70.18
2022-11-15T06:37:39.262Z,70.22
2022-11-15T06:39:00.273Z,70.30
2022-11-15T06:40:20.799Z,70.27
2022-11-15T06:41:41.234Z,70.33
2022-11-15T06:43:03.475Z,70.20
2022-11-15T06:44:24.076Z,70.28
2022-11-15T06:45:44.957Z,70.29
2022-11-15T06:47:05.726Z,70.18
2022-11-15T06:48:27.121Z,70.21
2022-11-15T06:49:47.828Z,70.31
2022-11-15T06:51:09.609Z,70.34
2022-11-15T06:52:33.611Z,70.28
2022-11-15T06:53:54.085Z,70.30
2022-11-15T06:55:15.041Z,70.39
2022-11-15T06:56:35.736Z,70.30
2022-11-15T06:57:56.516Z,70.38
2022-11-15T06:59:17.072Z,70.42
2022-11-15T07:00:37.659Z,70.50
2022-11-15T07:01:58.329Z,70.43
2022-11-15T07:03:22.259Z,70.47
2022-11-15T07:04:43.169Z,70.52
2022-11-15T07:06:07.552Z,70.52
2022-11-15T07:07:28.788Z,70.60
2022-11-15T07:08:49.913Z,70.71
2022-11-15T07:10:11.083Z,70.56
2022-11-15T07:11:31.650Z,70.66
2022-11-15T07:12:53.859Z,70.72
2022-11-15T07:14:14.578Z,70.72
2022-11-15T07:15:35.678Z,70.71
2022-11-15T07:16:56.368Z,70.67
2022-11-15T07:18:17.388Z,70.75
2022-11-15T07:19:38.086Z,70.76
2022-11-15T07:21:02.990Z,70.74
2022-11-15T07:22:23.601Z,70.79
2022-11-15T07:23:44.561Z,70.78
2022-11-15T07:25:05.406Z,70.83
2022-11-15T07:26:26.443Z,70.86
2022-11-15T07:27:55.588Z,70.78
2022-11-15T07:29:16.803Z,70.84
2022-11-15T07:30:40.004Z,70.84
2022-11-15T07:32:04.823Z,70.90
2022-11-15T07:33:25.260Z,70.95
2022-11-15T07:34:47.660Z,70.92
2022-11-15T07:36:09.036Z,70.88
2022-11-15T07:37:30.172Z,70.73
2022-11-15T07:38:51.303Z,70.71
2022-11-15T07:40:12.958Z,70.69
2022-11-15T07:41:33.461Z,70.65
2022-11-15T07:43:03.869Z,70.64
2022-11-15T07:44:24.570Z,70.51
2022-11-15T07:45:46.595Z,70.38
2022-11-15T07:47:07.132Z,70.18
2022-11-15T07:48:42.230Z,70.08
2022-11-15T07:50:03.981Z,69.93
2022-11-15T07:51:24.556Z,69.88
2022-11-15T07:52:46.731Z,70.06
2022-11-15T07:54:07.424Z,69.70
2022-11-15T07:55:31.127Z,69.47
2022-11-15T07:56:51.856Z,69.32
2022-11-15T07:58:13.582Z,69.04
2022-11-15T07:59:38.669Z,68.77
2022-11-15T08:00:59.679Z,68.58
2022-11-15T08:02:20.666Z,68.24
2022-11-15T08:03:42.515Z,68.31
2022-11-15T08:05:04.203Z,67.99
2022-11-15T08:06:24.999Z,67.79
2022-11-15T08:07:45.819Z,67.74
2022-11-15T08:09:06.642Z,67.43
2022-11-15T08:10:28.633Z,67.33
2022-11-15T08:11:49.179Z,67.40
2022-11-15T08:13:11.805Z,66.83
2022-11-15T08:14:32.876Z,66.60
2022-11-15T08:15:58.827Z,66.09
2022-11-15T08:17:19.513Z,66.04
2022-11-15T08:18:40.334Z,65.80
2022-11-15T08:20:01.067Z,65.42
2022-11-15T08:21:22.436Z,65.48
2022-11-15T08:22:43.448Z,65.43
2022-11-15T08:24:04.827Z,65.56
2022-11-15T08:25:27.673Z,65.36
2022-11-15T08:26:49.613Z,65.12
2022-11-15T08:28:11.502Z,64.77
2022-11-15T08:29:32.418Z,64.76
2022-11-15T08:30:53.281Z,64.59
2022-11-15T08:32:13.822Z,64.19
2022-11-15T08:33:36.570Z,63.84
2022-11-15T08:34:56.921Z,63.74
2022-11-15T08:36:18.941Z,63.65
2022-11-15T08:37:42.284Z,63.42
2022-11-15T08:39:03.330Z,63.13
2022-11-15T08:40:24.320Z,62.71
2022-11-15T08:41:45.785Z,62.48
2022-11-15T08:43:06.761Z,62.07
2022-11-15T08:44:27.182Z,61.81
2022-11-15T08:45:47.906Z,61.41
2022-11-15T08:47:09.746Z,61.16
2022-11-15T08:48:30.900Z,61.00
2022-11-15T08:49:51.949Z,60.79
2022-11-15T08:51:12.604Z,60.47
2022-11-15T08:52:33.501Z,60.24
2022-11-15T08:53:54.349Z,59.92
2022-11-15T08:55:17.558Z,59.81
2022-11-15T08:56:38.550Z,59.61
2022-11-15T08:57:59.497Z,59.16
2022-11-15T08:59:20.479Z,59.20
2022-11-15T09:00:41.066Z,58.82
2022-11-15T09:02:02.510Z,58.56
2022-11-15T09:03:23.552Z,58.71
2022-11-15T09:04:45.289Z,58.54
2022-11-15T09:06:06.112Z,58.69
2022-11-15T09:07:27.352Z,58.71
2022-11-15T09:08:49.334Z,58.12
2022-11-15T09:10:10.974Z,58.08
2022-11-15T09:11:32.001Z,57.80
2022-11-15T09:12:53.048Z,57.76
2022-11-15T09:14:14.939Z,57.88
2022-11-15T09:15:35.900Z,57.16
2022-11-15T09:16:56.627Z,57.05
2022-11-15T09:18:17.287Z,56.86
2022-11-15T09:19:38.611Z,56.87
2022-11-15T09:21:00.834Z,56.88
2022-11-15T09:22:22.266Z,56.69
2022-11-15T09:23:43.322Z,56.85
2022-11-15T09:25:08.524Z,56.58
2022-11-15T09:26:30.718Z,56.57
2022-11-15T09:27:51.664Z,56.33
2022-11-15T09:29:13.480Z,56.37
2022-11-15T09:30:35.013Z,56.19
2022-11-15T09:31:55.816Z,56.21
2022-11-15T09:33:16.943Z,56.27
2022-11-15T09:34:37.683Z,56.23
2022-11-15T09:36:08.957Z,56.42
2022-11-15T09:37:29.937Z,55.90
2022-11-15T09:38:50.447Z,55.54
2022-11-15T09:40:17.392Z,55.08
2022-11-15T09:42:03.288Z,54.93
2022-11-15T09:43:38.274Z,54.65
2022-11-15T09:45:18.900Z,54.61
2022-11-15T09:46:54.694Z,54.66
2022-11-15T09:48:09.265Z,54.46
2022-11-15T09:49:37.303Z,54.10
2022-11-15T09:50:51.533Z,54.46
2022-11-15T09:51:55.328Z,54.32
2022-11-15T09:52:57.540Z,54.59
2022-11-15T09:54:45.632Z,54.83
2022-11-15T09:55:42.066Z,54.90
2022-11-15T09:56:48.148Z,54.40
2022-11-15T09:58:05.212Z,54.40
2022-11-15T09:59:13.426Z,54.22
2022-11-15T10:00:45.500Z,53.94
2022-11-15T10:01:49.790Z,53.92
2022-11-15T10:03:04.615Z,54.10
2022-11-15T10:04:10.805Z,53.96
2022-11-15T10:05:20.149Z,53.70
2022-11-15T10:06:28.588Z,53.44
2022-11-15T10:07:58.499Z,53.91
2022-11-15T10:09:15.018Z,53.37
2022-11-15T10:10:28.573Z,53.51
2022-11-15T10:11:38.714Z,53.30
2022-11-15T10:12:46.776Z,53.13
2022-11-15T10:13:51.452Z,52.84
2022-11-15T10:15:02.793Z,52.80
2022-11-15T10:16:20.294Z,52.75
2022-11-15T10:17:28.787Z,52.22
2022-11-15T10:18:42.197Z,52.11
2022-11-15T10:20:06.009Z,51.99
2022-11-15T10:21:20.673Z,51.92
2022-11-15T10:22:30.491Z,51.66
2022-11-15T10:23:33.038Z,51.71
2022-11-15T10:24:40.441Z,51.48
2022-11-15T10:25:42.766Z,51.66
2022-11-15T10:26:49.464Z,51.43
2022-11-15T10:27:56.002Z,51.43
2022-11-15T10:28:58.271Z,51.87
2022-11-15T10:30:00.501Z,51.14
2022-11-15T10:31:06.551Z,51.29
2022-11-15T10:32:08.949Z,51.20
2022-11-15T10:33:36.636Z,51.04
2022-11-15T10:34:38.977Z,51.05
2022-11-15T10:35:41.319Z,50.89
2022-11-15T10:36:50.230Z,50.83
2022-11-15T10:37:53.008Z,51.14
2022-11-15T10:39:05.540Z,51.16
2022-11-15T10:40:17.761Z,51.22
2022-11-15T10:41:21.709Z,51.29
2022-11-15T10:42:29.091Z,51.49
2022-11-15T10:43:31.486Z,51.69
2022-11-15T10:44:44.151Z,51.48
2022-11-15T10:45:48.357Z,51.51
2022-11-15T10:46:56.418Z,51.71
2022-11-15T10:48:14.029Z,51.64
2022-11-15T10:49:18.249Z,51.18
2022-11-15T10:50:32.917Z,51.45
2022-11-15T10:51:43.093Z,51.23
2022-11-15T10:52:48.874Z,51.41
2022-11-15T10:53:53.559Z,51.28
2022-11-15T10:55:10.601Z,51.52
2022-11-15T10:56:16.798Z,51.44
2022-11-15T10:57:22.901Z,51.38
2022-11-15T10:58:42.767Z,51.35
2022-11-15T11:00:05.367Z,51.63
2022-11-15T11:01:14.290Z,51.58
2022-11-15T11:02:36.821Z,51.56
2022-11-15T11:03:40.471Z,51.66
2022-11-15T11:04:52.766Z,51.64
2022-11-15T11:06:08.726Z,51.34
2022-11-15T11:07:23.394Z,51.19
2022-11-15T11:08:25.820Z,51.27
2022-11-15T11:09:40.167Z,51.28
2022-11-15T11:11:03.010Z,51.52
2022-11-15T11:12:11.104Z,51.56
2022-11-15T11:13:15.511Z,51.35
2022-11-15T11:14:39.053Z,51.77
2022-11-15T11:15:46.289Z,51.18
2022-11-15T11:17:03.787Z,51.22
2022-11-15T11:18:18.862Z,51.22
2022-11-15T11:19:36.058Z,51.28
2022-11-15T11:20:44.965Z,51.18
2022-11-15T11:22:19.163Z,51.45
2022-11-15T11:23:50.615Z,51.50
2022-11-15T11:24:58.153Z,51.15
2022-11-15T11:26:30.739Z,51.32
2022-11-15T11:27:52.464Z,51.16
2022-11-15T11:29:09.855Z,51.19
2022-11-15T11:30:22.942Z,50.94
2022-11-15T11:31:48.675Z,51.33
2022-11-15T11:33:02.829Z,51.29
2022-11-15T11:34:23.749Z,51.43
2022-11-15T11:35:35.334Z,51.33
2022-11-15T11:36:54.417Z,51.79
2022-11-15T11:38:21.532Z,51.34
2022-11-15T11:39:57.706Z,51.52
2022-11-15T11:41:37.883Z,51.55
2022-11-15T11:43:00.567Z,51.35
2022-11-15T11:44:47.962Z,51.53
2022-11-15T11:46:05.279Z,51.63
2022-11-15T11:47:10.808Z,51.44
2022-11-15T11:48:24.190Z,51.69
2022-11-15T11:49:34.231Z,51.58
2022-11-15T11:50:39.536Z,51.66
2022-11-15T11:52:02.608Z,51.51
2022-11-15T11:53:13.818Z,51.68
2022-11-15T11:54:51.269Z,51.58
2022-11-15T11:56:02.786Z,51.88
2022-11-15T11:57:14.164Z,52.02
2022-11-15T11:58:27.323Z,51.93
2022-11-15T11:59:45.995Z,51.87
2022-11-15T12:00:53.359Z,51.85
2022-11-15T12:01:55.887Z,52.04
2022-11-15T12:03:18.613Z,51.76
2022-11-15T12:04:47.044Z,51.82
2022-11-15T12:06:06.190Z,51.75
2022-11-15T12:07:14.560Z,51.90
2022-11-15T12:08:27.921Z,51.75
2022-11-15T12:09:30.845Z,51.73
2022-11-15T12:10:35.669Z,51.91
2022-11-15T12:12:05.766Z,52.03
2022-11-15T12:13:25.551Z,52.31
2022-11-15T12:14:33.357Z,51.91
2022-11-15T12:15:49.359Z,52.11
2022-11-15T12:16:52.168Z,52.09
2022-11-15T12:17:57.983Z,52.17
2022-11-15T12:19:05.778Z,51.85
2022-11-15T12:20:16.397Z,52.21
2022-11-15T12:21:40.609Z,52.26
2022-11-15T12:22:48.445Z,52.11
2022-11-15T12:23:56.831Z,52.24
2022-11-15T12:25:29.302Z,52.13
2022-11-15T12:27:05.592Z,52.47
2022-11-15T12:28:18.891Z,52.47
2022-11-15T12:29:32.136Z,52.29
2022-11-15T12:30:52.782Z,52.46
2022-11-15T12:31:58.054Z,52.23
2022-11-15T12:33:02.432Z,52.25
2022-11-15T12:34:29.546Z,52.42
2022-11-15T12:35:35.995Z,52.31
2022-11-15T12:36:43.868Z,52.40
2022-11-15T12:37:51.660Z,52.32
2022-11-15T12:39:13.594Z,52.33
2022-11-15T12:40:27.353Z,52.49
2022-11-15T12:41:32.777Z,52.45
2022-11-15T12:42:59.784Z,52.54
2022-11-15T12:44:03.649Z,52.66
2022-11-15T12:45:29.976Z,52.67
2022-11-15T12:46:34.469Z,52.55
2022-11-15T12:47:36.725Z,52.76
2022-11-15T12:48:38.954Z,52.79
2022-11-15T12:49:41.192Z,52.71
2022-11-15T12:50:55.450Z,52.77
2022-11-15T12:51:57.712Z,52.55
2022-11-15T12:53:28.776Z,52.57
2022-11-15T12:54:52.802Z,52.59
2022-11-15T12:56:07.346Z,52.66
2022-11-15T12:57:10.128Z,52.67
2022-11-15T12:58:30.469Z,52.99
2022-11-15T13:00:05.376Z,52.87
2022-11-15T13:01:09.053Z,52.99
2022-11-15T13:02:20.048Z,52.90
2022-11-15T13:03:24.946Z,53.03
2022-11-15T13:04:29.125Z,52.99
2022-11-15T13:05:31.805Z,52.88
2022-11-15T13:06:55.223Z,53.02
2022-11-15T13:07:59.674Z,52.99
2022-11-15T13:09:04.720Z,52.84
2022-11-15T13:10:12.798Z,53.09
2022-11-15T13:11:47.728Z,53.40
2022-11-15T13:12:52.525Z,53.25
2022-11-15T13:13:54.792Z,53.30
2022-11-15T13:15:19.931Z,53.11
2022-11-15T13:16:22.244Z,53.17
2022-11-15T13:17:30.848Z,53.01
2022-11-15T13:18:34.150Z,53.26
2022-11-15T13:19:38.065Z,53.20
2022-11-15T13:20:40.376Z,53.11
2022-11-15T13:22:08.922Z,53.27
2022-11-15T13:23:19.280Z,53.31
2022-11-15T13:24:21.517Z,53.01
2022-11-15T13:26:09.589Z,53.38
2022-11-15T13:27:19.615Z,53.34
2022-11-15T13:28:33.692Z,53.30
2022-11-15T13:29:36.709Z,53.32
2022-11-15T13:30:39.245Z,53.22
2022-11-15T13:31:44.281Z,53.39
2022-11-15T13:32:46.628Z,53.30
2022-11-15T13:33:49.262Z,53.35
2022-11-15T13:34:54.250Z,53.42
2022-11-15T13:35:59.930Z,53.43
2022-11-15T13:37:03.617Z,53.63
2022-11-15T13:38:06.260Z,53.45
2022-11-15T13:39:28.657Z,53.73
2022-11-15T13:40:36.917Z,53.46
2022-11-15T13:41:49.535Z,53.41
2022-11-15T13:42:52.271Z,53.50
2022-11-15T13:43:55.905Z,53.62
2022-11-15T13:45:01.162Z,53.61
2022-11-15T13:46:21.565Z,53.42
2022-11-15T13:47:28.217Z,53.44
2022-11-15T13:48:31.189Z,53.67
2022-11-15T13:49:35.142Z,53.59
2022-11-15T13:50:40.248Z,53.42
2022-11-15T13:51:52.635Z,53.66
2022-11-15T13:53:00.310Z,53.63
2022-11-15T13:54:14.498Z,53.41
2022-11-15T13:55:23.452Z,53.62
2022-11-15T13:56:28.659Z,53.57
2022-11-15T13:57:46.161Z,53.55
2022-11-15T13:58:49.423Z,53.64
2022-11-15T13:59:58.652Z,53.76
2022-11-15T14:01:06.776Z,53.65
2022-11-15T14:02:21.302Z,53.88
2022-11-15T14:03:29.037Z,53.76
2022-11-15T14:04:34.908Z,53.63
2022-11-15T14:05:39.187Z,53.76
2022-11-15T14:06:51.844Z,53.76
2022-11-15T14:08:23.834Z,54.02
2022-11-15T14:09:39.873Z,54.00
2022-11-15T14:10:42.412Z,53.73
2022-11-15T14:11:53.046Z,53.78
2022-11-15T14:12:55.339Z,54.00
2022-11-15T14:14:09.576Z,53.84
2022-11-15T14:15:32.773Z,54.06
2022-11-15T14:16:40.926Z,53.85
2022-11-15T14:17:49.793Z,53.98
2022-11-15T14:18:56.651Z,53.83
2022-11-15T14:19:59.230Z,53.89
2022-11-15T14:21:09.053Z,54.14
2022-11-15T14:22:21.389Z,53.99
2022-11-15T14:23:28.684Z,54.16
2022-11-15T14:24:35.213Z,54.07
2022-11-15T14:25:37.544Z,54.10
2022-11-15T14:26:39.861Z,54.20
2022-11-15T14:27:44.596Z,54.16
2022-11-15T14:28:47.111Z,54.23
2022-11-15T14:29:50.047Z,54.50
2022-11-15T14:30:55.187Z,54.33
2022-11-15T14:32:15.588Z,54.63
2022-11-15T14:33:44.380Z,54.58
2022-11-15T14:34:48.408Z,54.52
2022-11-15T14:35:52.052Z,54.53
2022-11-15T14:36:54.277Z,54.66
2022-11-15T14:37:56.691Z,54.51
2022-11-15T14:38:59.194Z,54.62
2022-11-15T14:40:03.610Z,54.47
2022-11-15T14:41:06.855Z,54.59
2022-11-15T14:42:10.795Z,54.62
2022-11-15T14:43:14.484Z,54.61
2022-11-15T14:44:19.613Z,54.62
2022-11-15T14:45:23.275Z,54.61
2022-11-15T14:46:25.503Z,54.73
2022-11-15T14:47:27.701Z,54.69
2022-11-15T14:48:30.434Z,54.73
2022-11-15T14:49:33.210Z,54.73
2022-11-15T14:50:36.372Z,54.65
2022-11-15T14:51:38.638Z,54.85
2022-11-15T14:52:41.397Z,54.64
2022-11-15T14:53:45.023Z,54.87
2022-11-15T14:54:47.270Z,54.74
2022-11-15T14:55:50.223Z,54.87
2022-11-15T14:56:52.549Z,54.68
2022-11-15T14:57:55.239Z,54.87
2022-11-15T14:58:57.589Z,54.86
2022-11-15T14:59:59.755Z,54.89
2022-11-15T15:01:24.070Z,55.00
2022-11-15T15:02:28.039Z,54.90
2022-11-15T15:03:30.399Z,55.04
2022-11-15T15:04:32.622Z,54.92
2022-11-15T15:05:38.440Z,55.07
2022-11-15T15:06:40.931Z,55.03
2022-11-15T15:07:43.690Z,55.16
2022-11-15T15:08:47.182Z,55.11
2022-11-15T15:09:49.538Z,55.25
2022-11-15T15:10:51.808Z,55.29
2022-11-15T15:11:55.796Z,55.39
2022-11-15T15:12:58.130Z,55.50
2022-11-15T15:14:02.393Z,55.21
2022-11-15T15:15:07.765Z,55.52
2022-11-15T15:16:10.123Z,55.60
2022-11-15T15:17:12.544Z,55.65
2022-11-15T15:18:14.952Z,55.79
2022-11-15T15:19:19.468Z,55.69
2022-11-15T15:20:21.800Z,55.92
2022-11-15T15:21:29.886Z,55.79
2022-11-15T15:22:36.227Z,55.97
2022-11-15T15:23:38.448Z,55.96
2022-11-15T15:24:40.735Z,56.17
2022-11-15T15:25:43.247Z,55.99
2022-11-15T15:26:45.555Z,56.22
2022-11-15T15:27:47.883Z,56.29
2022-11-15T15:28:52.292Z,56.40
2022-11-15T15:29:54.551Z,56.63
2022-11-15T15:30:56.844Z,56.64
2022-11-15T15:32:01.302Z,56.58
2022-11-15T15:33:03.566Z,56.84
2022-11-15T15:34:05.870Z,56.66
2022-11-15T15:35:14.006Z,56.82
2022-11-15T15:36:19.461Z,56.69
2022-11-15T15:37:27.173Z,57.04
2022-11-15T15:38:32.258Z,57.10
2022-11-15T15:39:34.567Z,57.33
2022-11-15T15:40:36.956Z,56.96
2022-11-15T15:41:39.294Z,57.40
2022-11-15T15:42:41.642Z,57.25
2022-11-15T15:43:45.371Z,57.35
2022-11-15T15:44:48.998Z,57.41
2022-11-15T15:45:51.261Z,57.57
2022-11-15T15:46:53.693Z,57.69
2022-11-15T15:47:56.357Z,57.66
2022-11-15T15:48:58.611Z,57.67
2022-11-15T15:50:00.946Z,57.80
2022-11-15T15:51:07.385Z,57.74
2022-11-15T15:52:15.495Z,57.97
2022-11-15T15:53:18.452Z,57.94
2022-11-15T15:54:20.747Z,57.99
2022-11-15T15:55:23.925Z,58.10
2022-11-15T15:56:26.284Z,58.06
2022-11-15T15:57:28.597Z,58.17
2022-11-15T15:58:31.328Z,58.12
2022-11-15T15:59:33.940Z,58.13
2022-11-15T16:00:36.894Z,58.25
2022-11-15T16:01:39.094Z,58.33
2022-11-15T16:02:42.032Z,58.34
2022-11-15T16:03:44.285Z,58.43
2022-11-15T16:04:46.529Z,58.54
2022-11-15T16:05:51.501Z,58.42
2022-11-15T16:07:03.915Z,58.46
2022-11-15T16:08:06.280Z,58.49
2022-11-15T16:09:15.845Z,58.57
2022-11-15T16:10:21.413Z,58.67
2022-11-15T16:11:23.767Z,58.79
2022-11-15T16:12:26.210Z,58.75
2022-11-15T16:13:28.440Z,58.84
2022-11-15T16:14:32.917Z,58.75
2022-11-15T16:15:36.271Z,58.91
2022-11-15T16:16:39.226Z,58.89
2022-11-15T16:17:56.342Z,59.01
2022-11-15T16:18:58.517Z,58.99
2022-11-15T16:20:01.046Z,59.19
2022-11-15T16:21:03.369Z,59.22
2022-11-15T16:22:05.644Z,59.17
2022-11-15T16:23:12.126Z,59.37
2022-11-15T16:24:14.382Z,59.42
2022-11-15T16:25:16.665Z,59.43
2022-11-15T16:26:27.499Z,59.41
2022-11-15T16:27:29.794Z,59.45
2022-11-15T16:28:34.096Z,59.64
2022-11-15T16:29:36.582Z,59.65
2022-11-15T16:30:39.300Z,59.74
2022-11-15T16:31:41.547Z,59.75
2022-11-15T16:32:43.899Z,59.67
2022-11-15T16:33:49.127Z,59.93
2022-11-15T16:34:51.405Z,59.93
2022-11-15T16:35:53.843Z,60.04